sensor_id;sensor_type;location;lat;lon;timestamp;P1;durP1;ratioP1;P2;durP2;ratioP2
36855;SDS011;22788;51.434;6.786;2024-01-16T00:01:24;6.03;;;3.60;;
36855;SDS011;22788;51.434;6.786;2024-01-16T00:03:49;9.50;;;3.70;;
36855;SDS011;22788;51.434;6.786;2024-01-16T00:06:16;6.07;;;3.60;;
36855;SDS011;22788;51.434;6.786;2024-01-16T00:08:42;7.50;;;3.33;;
36855;SDS011;22788;51.434;6.786;2024-01-16T00:11:08;5.87;;;3.33;;
36855;SDS011;22788;51.434;6.786;2024-01-16T00:13:34;3.93;;;3.50;;
36855;SDS011;22788;51.434;6.786;2024-01-16T00:16:01;7.73;;;3.43;;
36855;SDS011;22788;51.434;6.786;2024-01-16T00:18:27;6.50;;;4.27;;
36855;SDS011;22788;51.434;6.786;2024-01-16T00:20:52;6.50;;;3.67;;
36855;SDS011;22788;51.434;6.786;2024-01-16T00:23:19;7.73;;;3.70;;
36855;SDS011;22788;51.434;6.786;2024-01-16T00:25:45;4.50;;;3.43;;
36855;SDS011;22788;51.434;6.786;2024-01-16T00:28:11;6.07;;;3.07;;
36855;SDS011;22788;51.434;6.786;2024-01-16T00:30:36;6.70;;;3.60;;
36855;SDS011;22788;51.434;6.786;2024-01-16T00:33:02;4.83;;;4.33;;
36855;SDS011;22788;51.434;6.786;2024-01-16T00:35:28;8.93;;;3.70;;
36855;SDS011;22788;51.434;6.786;2024-01-16T00:37:53;4.70;;;3.80;;
36855;SDS011;22788;51.434;6.786;2024-01-16T00:40:20;5.43;;;3.20;;
36855;SDS011;22788;51.434;6.786;2024-01-16T00:42:46;4.67;;;2.97;;
36855;SDS011;22788;51.434;6.786;2024-01-16T00:45:12;3.53;;;2.93;;
36855;SDS011;22788;51.434;6.786;2024-01-16T00:47:37;5.43;;;3.97;;
36855;SDS011;22788;51.434;6.786;2024-01-16T00:50:03;6.13;;;3.13;;
36855;SDS011;22788;51.434;6.786;2024-01-16T00:52:29;4.23;;;3.07;;
36855;SDS011;22788;51.434;6.786;2024-01-16T00:54:54;4.70;;;3.20;;
36855;SDS011;22788;51.434;6.786;2024-01-16T00:57:21;3.83;;;3.10;;
36855;SDS011;22788;51.434;6.786;2024-01-16T00:59:47;5.17;;;2.67;;
36855;SDS011;22788;51.434;6.786;2024-01-16T01:02:13;5.40;;;2.90;;
36855;SDS011;22788;51.434;6.786;2024-01-16T01:04:39;4.47;;;2.83;;
36855;SDS011;22788;51.434;6.786;2024-01-16T01:07:05;6.30;;;3.50;;
36855;SDS011;22788;51.434;6.786;2024-01-16T01:09:32;9.47;;;2.97;;
36855;SDS011;22788;51.434;6.786;2024-01-16T01:11:57;5.10;;;3.00;;
36855;SDS011;22788;51.434;6.786;2024-01-16T01:14:24;3.87;;;3.03;;
36855;SDS011;22788;51.434;6.786;2024-01-16T01:16:50;8.33;;;3.47;;
36855;SDS011;22788;51.434;6.786;2024-01-16T01:19:16;3.97;;;3.20;;
36855;SDS011;22788;51.434;6.786;2024-01-16T01:21:41;5.07;;;2.63;;
36855;SDS011;22788;51.434;6.786;2024-01-16T01:24:07;5.67;;;2.93;;
36855;SDS011;22788;51.434;6.786;2024-01-16T01:26:33;5.43;;;3.73;;
36855;SDS011;22788;51.434;6.786;2024-01-16T01:28:58;3.93;;;3.03;;
36855;SDS011;22788;51.434;6.786;2024-01-16T01:31:25;4.27;;;2.80;;
36855;SDS011;22788;51.434;6.786;2024-01-16T01:33:51;6.40;;;3.20;;
36855;SDS011;22788;51.434;6.786;2024-01-16T01:36:16;6.77;;;2.80;;
36855;SDS011;22788;51.434;6.786;2024-01-16T01:38:42;6.87;;;3.10;;
36855;SDS011;22788;51.434;6.786;2024-01-16T01:41:07;5.17;;;2.83;;
36855;SDS011;22788;51.434;6.786;2024-01-16T01:43:33;4.27;;;3.40;;
36855;SDS011;22788;51.434;6.786;2024-01-16T01:46:08;5.30;;;2.83;;
36855;SDS011;22788;51.434;6.786;2024-01-16T01:48:38;5.33;;;3.43;;
36855;SDS011;22788;51.434;6.786;2024-01-16T01:51:06;4.90;;;3.10;;
36855;SDS011;22788;51.434;6.786;2024-01-16T01:53:32;3.77;;;2.93;;
36855;SDS011;22788;51.434;6.786;2024-01-16T01:55:59;3.27;;;2.97;;
36855;SDS011;22788;51.434;6.786;2024-01-16T01:58:26;4.77;;;3.50;;
36855;SDS011;22788;51.434;6.786;2024-01-16T02:00:53;3.03;;;2.37;;
36855;SDS011;22788;51.434;6.786;2024-01-16T02:03:18;4.63;;;2.83;;
36855;SDS011;22788;51.434;6.786;2024-01-16T02:05:47;4.97;;;3.10;;
36855;SDS011;22788;51.434;6.786;2024-01-16T02:08:14;4.20;;;2.83;;
36855;SDS011;22788;51.434;6.786;2024-01-16T02:10:39;6.60;;;3.10;;
36855;SDS011;22788;51.434;6.786;2024-01-16T02:13:10;3.97;;;3.27;;
36855;SDS011;22788;51.434;6.786;2024-01-16T02:15:35;5.77;;;3.13;;
36855;SDS011;22788;51.434;6.786;2024-01-16T02:18:01;7.90;;;4.43;;
36855;SDS011;22788;51.434;6.786;2024-01-16T02:20:27;6.07;;;3.57;;
36855;SDS011;22788;51.434;6.786;2024-01-16T02:22:54;6.73;;;3.70;;
36855;SDS011;22788;51.434;6.786;2024-01-16T02:25:25;6.67;;;3.93;;
36855;SDS011;22788;51.434;6.786;2024-01-16T02:27:51;4.33;;;3.20;;
36855;SDS011;22788;51.434;6.786;2024-01-16T02:30:17;5.10;;;3.73;;
36855;SDS011;22788;51.434;6.786;2024-01-16T02:32:42;4.20;;;3.33;;
36855;SDS011;22788;51.434;6.786;2024-01-16T02:35:08;6.97;;;3.97;;
36855;SDS011;22788;51.434;6.786;2024-01-16T02:37:34;5.73;;;3.63;;
36855;SDS011;22788;51.434;6.786;2024-01-16T02:39:59;7.67;;;4.37;;
36855;SDS011;22788;51.434;6.786;2024-01-16T02:42:26;4.40;;;3.43;;
36855;SDS011;22788;51.434;6.786;2024-01-16T02:44:52;5.73;;;3.60;;
36855;SDS011;22788;51.434;6.786;2024-01-16T02:47:17;5.23;;;3.83;;
36855;SDS011;22788;51.434;6.786;2024-01-16T02:49:43;5.93;;;4.03;;
36855;SDS011;22788;51.434;6.786;2024-01-16T02:52:08;4.20;;;3.77;;
36855;SDS011;22788;51.434;6.786;2024-01-16T02:54:34;5.77;;;4.40;;
36855;SDS011;22788;51.434;6.786;2024-01-16T02:57:00;4.67;;;3.67;;
36855;SDS011;22788;51.434;6.786;2024-01-16T02:59:27;6.70;;;4.13;;
36855;SDS011;22788;51.434;6.786;2024-01-16T03:01:52;4.37;;;3.93;;
36855;SDS011;22788;51.434;6.786;2024-01-16T03:04:18;4.87;;;3.90;;
36855;SDS011;22788;51.434;6.786;2024-01-16T03:06:43;7.00;;;3.90;;
36855;SDS011;22788;51.434;6.786;2024-01-16T03:09:09;5.27;;;4.77;;
36855;SDS011;22788;51.434;6.786;2024-01-16T03:11:34;6.07;;;4.17;;
36855;SDS011;22788;51.434;6.786;2024-01-16T03:14:00;6.17;;;4.27;;
36855;SDS011;22788;51.434;6.786;2024-01-16T03:16:27;8.50;;;6.10;;
36855;SDS011;22788;51.434;6.786;2024-01-16T03:18:53;7.80;;;6.20;;
36855;SDS011;22788;51.434;6.786;2024-01-16T03:21:18;5.70;;;5.10;;
36855;SDS011;22788;51.434;6.786;2024-01-16T03:23:44;5.37;;;4.80;;
36855;SDS011;22788;51.434;6.786;2024-01-16T03:26:11;8.60;;;4.77;;
36855;SDS011;22788;51.434;6.786;2024-01-16T03:28:37;8.50;;;5.33;;
36855;SDS011;22788;51.434;6.786;2024-01-16T03:31:03;8.87;;;5.60;;
36855;SDS011;22788;51.434;6.786;2024-01-16T03:33:30;6.20;;;4.90;;
36855;SDS011;22788;51.434;6.786;2024-01-16T03:35:56;7.83;;;5.10;;
36855;SDS011;22788;51.434;6.786;2024-01-16T03:38:21;11.90;;;5.73;;
36855;SDS011;22788;51.434;6.786;2024-01-16T03:40:47;6.00;;;4.43;;
36855;SDS011;22788;51.434;6.786;2024-01-16T03:43:12;8.43;;;6.50;;
36855;SDS011;22788;51.434;6.786;2024-01-16T03:45:38;8.57;;;6.17;;
36855;SDS011;22788;51.434;6.786;2024-01-16T03:48:04;9.47;;;5.50;;
36855;SDS011;22788;51.434;6.786;2024-01-16T03:50:31;10.23;;;6.57;;
36855;SDS011;22788;51.434;6.786;2024-01-16T03:52:57;9.43;;;6.27;;
36855;SDS011;22788;51.434;6.786;2024-01-16T03:55:22;11.50;;;6.47;;
36855;SDS011;22788;51.434;6.786;2024-01-16T03:57:48;9.47;;;6.67;;
36855;SDS011;22788;51.434;6.786;2024-01-16T04:00:14;8.03;;;5.63;;
36855;SDS011;22788;51.434;6.786;2024-01-16T04:02:39;8.40;;;5.40;;
36855;SDS011;22788;51.434;6.786;2024-01-16T04:05:05;8.00;;;5.90;;
36855;SDS011;22788;51.434;6.786;2024-01-16T04:07:32;11.00;;;7.00;;
36855;SDS011;22788;51.434;6.786;2024-01-16T04:09:58;8.83;;;6.37;;
36855;SDS011;22788;51.434;6.786;2024-01-16T04:12:23;6.93;;;5.67;;
36855;SDS011;22788;51.434;6.786;2024-01-16T04:14:49;9.57;;;7.03;;
36855;SDS011;22788;51.434;6.786;2024-01-16T04:17:15;9.03;;;6.20;;
36855;SDS011;22788;51.434;6.786;2024-01-16T04:19:40;12.67;;;6.77;;
36855;SDS011;22788;51.434;6.786;2024-01-16T04:22:06;9.00;;;6.23;;
36855;SDS011;22788;51.434;6.786;2024-01-16T04:24:33;9.57;;;6.13;;
36855;SDS011;22788;51.434;6.786;2024-01-16T04:26:58;10.13;;;5.57;;
36855;SDS011;22788;51.434;6.786;2024-01-16T04:29:24;9.60;;;6.30;;
36855;SDS011;22788;51.434;6.786;2024-01-16T04:31:49;9.93;;;5.77;;
36855;SDS011;22788;51.434;6.786;2024-01-16T04:34:15;7.73;;;5.10;;
36855;SDS011;22788;51.434;6.786;2024-01-16T04:36:40;7.63;;;5.73;;
36855;SDS011;22788;51.434;6.786;2024-01-16T04:39:06;8.73;;;5.73;;
36855;SDS011;22788;51.434;6.786;2024-01-16T04:41:33;8.00;;;5.23;;
36855;SDS011;22788;51.434;6.786;2024-01-16T04:43:59;11.43;;;5.77;;
36855;SDS011;22788;51.434;6.786;2024-01-16T04:46:24;9.27;;;5.43;;
36855;SDS011;22788;51.434;6.786;2024-01-16T04:48:50;7.47;;;5.37;;
36855;SDS011;22788;51.434;6.786;2024-01-16T04:51:15;8.23;;;5.40;;
36855;SDS011;22788;51.434;6.786;2024-01-16T04:53:41;6.77;;;5.17;;
36855;SDS011;22788;51.434;6.786;2024-01-16T04:56:06;5.73;;;4.50;;
36855;SDS011;22788;51.434;6.786;2024-01-16T04:58:33;10.37;;;5.73;;
36855;SDS011;22788;51.434;6.786;2024-01-16T05:00:59;6.40;;;4.97;;
36855;SDS011;22788;51.434;6.786;2024-01-16T05:03:24;5.73;;;4.33;;
36855;SDS011;22788;51.434;6.786;2024-01-16T05:05:50;7.57;;;4.30;;
36855;SDS011;22788;51.434;6.786;2024-01-16T05:08:16;6.00;;;4.60;;
36855;SDS011;22788;51.434;6.786;2024-01-16T05:10:41;8.93;;;4.63;;
36855;SDS011;22788;51.434;6.786;2024-01-16T05:13:07;4.43;;;3.93;;
36855;SDS011;22788;51.434;6.786;2024-01-16T05:15:34;7.83;;;4.33;;
36855;SDS011;22788;51.434;6.786;2024-01-16T05:17:59;5.37;;;3.60;;
36855;SDS011;22788;51.434;6.786;2024-01-16T05:20:25;7.40;;;3.73;;
36855;SDS011;22788;51.434;6.786;2024-01-16T05:22:50;5.83;;;4.23;;
36855;SDS011;22788;51.434;6.786;2024-01-16T05:25:16;5.90;;;3.67;;
36855;SDS011;22788;51.434;6.786;2024-01-16T05:27:42;9.63;;;4.47;;
36855;SDS011;22788;51.434;6.786;2024-01-16T05:30:07;5.90;;;4.33;;
36855;SDS011;22788;51.434;6.786;2024-01-16T05:32:36;4.73;;;3.83;;
36855;SDS011;22788;51.434;6.786;2024-01-16T05:35:01;6.10;;;3.83;;
36855;SDS011;22788;51.434;6.786;2024-01-16T05:37:27;5.77;;;4.30;;
36855;SDS011;22788;51.434;6.786;2024-01-16T05:39:53;5.40;;;4.50;;
36855;SDS011;22788;51.434;6.786;2024-01-16T05:42:18;5.50;;;4.17;;
36855;SDS011;22788;51.434;6.786;2024-01-16T05:44:44;7.57;;;4.60;;
36855;SDS011;22788;51.434;6.786;2024-01-16T05:47:10;6.47;;;3.90;;
36855;SDS011;22788;51.434;6.786;2024-01-16T05:49:37;4.73;;;4.00;;
36855;SDS011;22788;51.434;6.786;2024-01-16T05:52:02;6.57;;;4.60;;
36855;SDS011;22788;51.434;6.786;2024-01-16T05:54:28;11.57;;;5.93;;
36855;SDS011;22788;51.434;6.786;2024-01-16T05:56:53;8.23;;;6.43;;
36855;SDS011;22788;51.434;6.786;2024-01-16T05:59:19;6.83;;;5.17;;
36855;SDS011;22788;51.434;6.786;2024-01-16T06:01:45;5.27;;;4.77;;
36855;SDS011;22788;51.434;6.786;2024-01-16T06:04:10;9.53;;;4.57;;
36855;SDS011;22788;51.434;6.786;2024-01-16T06:06:37;11.70;;;4.90;;
36855;SDS011;22788;51.434;6.786;2024-01-16T06:09:03;6.07;;;4.70;;
36855;SDS011;22788;51.434;6.786;2024-01-16T06:11:31;7.30;;;5.03;;
36855;SDS011;22788;51.434;6.786;2024-01-16T06:13:57;6.97;;;4.97;;
36855;SDS011;22788;51.434;6.786;2024-01-16T06:16:23;11.57;;;5.23;;
36855;SDS011;22788;51.434;6.786;2024-01-16T06:18:48;11.10;;;5.90;;
36855;SDS011;22788;51.434;6.786;2024-01-16T06:21:14;8.33;;;5.87;;
36855;SDS011;22788;51.434;6.786;2024-01-16T06:23:41;11.07;;;7.23;;
36855;SDS011;22788;51.434;6.786;2024-01-16T06:26:07;9.17;;;6.30;;
36855;SDS011;22788;51.434;6.786;2024-01-16T06:28:33;9.30;;;5.73;;
36855;SDS011;22788;51.434;6.786;2024-01-16T06:30:58;7.97;;;5.20;;
36855;SDS011;22788;51.434;6.786;2024-01-16T06:33:24;12.03;;;6.47;;
36855;SDS011;22788;51.434;6.786;2024-01-16T06:35:49;9.53;;;5.53;;
36855;SDS011;22788;51.434;6.786;2024-01-16T06:38:15;9.13;;;5.70;;
36855;SDS011;22788;51.434;6.786;2024-01-16T06:40:42;7.67;;;5.40;;
36855;SDS011;22788;51.434;6.786;2024-01-16T06:43:07;10.73;;;6.60;;
36855;SDS011;22788;51.434;6.786;2024-01-16T06:45:33;7.00;;;5.60;;
36855;SDS011;22788;51.434;6.786;2024-01-16T06:47:58;9.10;;;5.20;;
36855;SDS011;22788;51.434;6.786;2024-01-16T06:50:24;12.10;;;6.13;;
36855;SDS011;22788;51.434;6.786;2024-01-16T06:52:50;9.20;;;5.43;;
36855;SDS011;22788;51.434;6.786;2024-01-16T06:55:15;7.70;;;5.70;;
36855;SDS011;22788;51.434;6.786;2024-01-16T06:57:42;8.27;;;5.37;;
36855;SDS011;22788;51.434;6.786;2024-01-16T07:00:08;9.17;;;5.40;;
36855;SDS011;22788;51.434;6.786;2024-01-16T07:02:34;9.47;;;5.87;;
36855;SDS011;22788;51.434;6.786;2024-01-16T07:05:00;8.23;;;5.57;;
36855;SDS011;22788;51.434;6.786;2024-01-16T07:07:25;5.63;;;5.00;;
36855;SDS011;22788;51.434;6.786;2024-01-16T07:09:51;9.33;;;5.53;;
36855;SDS011;22788;51.434;6.786;2024-01-16T07:12:16;9.10;;;5.87;;
36855;SDS011;22788;51.434;6.786;2024-01-16T07:14:43;11.97;;;5.60;;
36855;SDS011;22788;51.434;6.786;2024-01-16T07:17:09;7.80;;;5.23;;
36855;SDS011;22788;51.434;6.786;2024-01-16T07:19:34;7.50;;;5.30;;
36855;SDS011;22788;51.434;6.786;2024-01-16T07:22:00;8.13;;;5.03;;
36855;SDS011;22788;51.434;6.786;2024-01-16T07:24:26;6.50;;;5.13;;
36855;SDS011;22788;51.434;6.786;2024-01-16T07:26:51;6.30;;;4.80;;
36855;SDS011;22788;51.434;6.786;2024-01-16T07:29:17;7.80;;;5.13;;
36855;SDS011;22788;51.434;6.786;2024-01-16T07:31:44;9.77;;;4.53;;
36855;SDS011;22788;51.434;6.786;2024-01-16T07:34:09;7.53;;;4.47;;
36855;SDS011;22788;51.434;6.786;2024-01-16T07:36:35;9.17;;;4.73;;
36855;SDS011;22788;51.434;6.786;2024-01-16T07:39:00;8.10;;;4.47;;
36855;SDS011;22788;51.434;6.786;2024-01-16T07:41:26;6.43;;;4.50;;
36855;SDS011;22788;51.434;6.786;2024-01-16T07:43:52;9.17;;;5.23;;
36855;SDS011;22788;51.434;6.786;2024-01-16T07:46:17;8.43;;;5.00;;
36855;SDS011;22788;51.434;6.786;2024-01-16T07:48:44;7.13;;;4.57;;
36855;SDS011;22788;51.434;6.786;2024-01-16T07:51:10;8.80;;;4.23;;
36855;SDS011;22788;51.434;6.786;2024-01-16T07:53:35;8.47;;;4.07;;
36855;SDS011;22788;51.434;6.786;2024-01-16T07:56:01;10.93;;;4.90;;
36855;SDS011;22788;51.434;6.786;2024-01-16T07:58:27;9.27;;;4.43;;
36855;SDS011;22788;51.434;6.786;2024-01-16T08:00:52;7.63;;;4.63;;
36855;SDS011;22788;51.434;6.786;2024-01-16T08:03:18;9.63;;;4.53;;
36855;SDS011;22788;51.434;6.786;2024-01-16T08:05:45;7.63;;;4.27;;
36855;SDS011;22788;51.434;6.786;2024-01-16T08:08:10;7.97;;;4.67;;
36855;SDS011;22788;51.434;6.786;2024-01-16T08:10:36;8.87;;;4.83;;
36855;SDS011;22788;51.434;6.786;2024-01-16T08:13:02;4.53;;;4.10;;
36855;SDS011;22788;51.434;6.786;2024-01-16T08:15:27;6.07;;;4.13;;
36855;SDS011;22788;51.434;6.786;2024-01-16T08:17:53;7.77;;;3.97;;
36855;SDS011;22788;51.434;6.786;2024-01-16T08:20:18;6.97;;;3.60;;
36855;SDS011;22788;51.434;6.786;2024-01-16T08:22:45;6.97;;;3.80;;
36855;SDS011;22788;51.434;6.786;2024-01-16T08:25:11;7.27;;;4.27;;
36855;SDS011;22788;51.434;6.786;2024-01-16T08:27:37;7.07;;;3.80;;
36855;SDS011;22788;51.434;6.786;2024-01-16T08:30:02;5.97;;;3.70;;
36855;SDS011;22788;51.434;6.786;2024-01-16T08:32:29;6.57;;;3.63;;
36855;SDS011;22788;51.434;6.786;2024-01-16T08:34:54;7.93;;;3.53;;
36855;SDS011;22788;51.434;6.786;2024-01-16T08:37:20;3.63;;;3.03;;
36855;SDS011;22788;51.434;6.786;2024-01-16T08:39:47;8.03;;;4.07;;
36855;SDS011;22788;51.434;6.786;2024-01-16T08:42:12;5.73;;;3.37;;
36855;SDS011;22788;51.434;6.786;2024-01-16T08:44:38;7.67;;;4.70;;
36855;SDS011;22788;51.434;6.786;2024-01-16T08:47:03;10.03;;;3.60;;
36855;SDS011;22788;51.434;6.786;2024-01-16T08:49:29;5.40;;;3.50;;
36855;SDS011;22788;51.434;6.786;2024-01-16T08:51:55;8.60;;;3.00;;
36855;SDS011;22788;51.434;6.786;2024-01-16T08:54:20;6.07;;;3.20;;
36855;SDS011;22788;51.434;6.786;2024-01-16T08:56:47;5.40;;;3.40;;
36855;SDS011;22788;51.434;6.786;2024-01-16T08:59:13;6.47;;;3.40;;
36855;SDS011;22788;51.434;6.786;2024-01-16T09:01:38;7.27;;;3.40;;
36855;SDS011;22788;51.434;6.786;2024-01-16T09:04:04;6.90;;;3.50;;
36855;SDS011;22788;51.434;6.786;2024-01-16T09:06:30;6.57;;;3.67;;
36855;SDS011;22788;51.434;6.786;2024-01-16T09:08:55;7.07;;;3.40;;
36855;SDS011;22788;51.434;6.786;2024-01-16T09:11:21;4.20;;;3.30;;
36855;SDS011;22788;51.434;6.786;2024-01-16T09:13:48;9.43;;;3.27;;
36855;SDS011;22788;51.434;6.786;2024-01-16T09:16:13;4.90;;;3.47;;
36855;SDS011;22788;51.434;6.786;2024-01-16T09:18:39;3.90;;;2.97;;
36855;SDS011;22788;51.434;6.786;2024-01-16T09:21:04;3.33;;;3.03;;
36855;SDS011;22788;51.434;6.786;2024-01-16T09:23:30;5.47;;;2.93;;
36855;SDS011;22788;51.434;6.786;2024-01-16T09:25:56;5.27;;;3.00;;
36855;SDS011;22788;51.434;6.786;2024-01-16T09:28:21;4.77;;;3.20;;
36855;SDS011;22788;51.434;6.786;2024-01-16T09:30:48;4.80;;;3.00;;
36855;SDS011;22788;51.434;6.786;2024-01-16T09:33:14;9.27;;;2.90;;
36855;SDS011;22788;51.434;6.786;2024-01-16T09:35:39;5.17;;;2.50;;
36855;SDS011;22788;51.434;6.786;2024-01-16T09:38:05;5.57;;;2.80;;
36855;SDS011;22788;51.434;6.786;2024-01-16T09:40:31;7.30;;;2.60;;
36855;SDS011;22788;51.434;6.786;2024-01-16T09:42:56;6.67;;;2.97;;
36855;SDS011;22788;51.434;6.786;2024-01-16T09:45:22;6.17;;;3.30;;
36855;SDS011;22788;51.434;6.786;2024-01-16T09:47:51;7.43;;;4.30;;
36855;SDS011;22788;51.434;6.786;2024-01-16T09:50:18;6.37;;;3.10;;
36855;SDS011;22788;51.434;6.786;2024-01-16T09:52:45;6.93;;;3.47;;
36855;SDS011;22788;51.434;6.786;2024-01-16T09:55:10;8.67;;;3.13;;
36855;SDS011;22788;51.434;6.786;2024-01-16T09:57:36;4.57;;;3.00;;
36855;SDS011;22788;51.434;6.786;2024-01-16T10:00:05;7.23;;;3.40;;
36855;SDS011;22788;51.434;6.786;2024-01-16T10:02:32;4.57;;;3.30;;
36855;SDS011;22788;51.434;6.786;2024-01-16T10:04:59;4.53;;;2.80;;
36855;SDS011;22788;51.434;6.786;2024-01-16T10:07:25;3.90;;;2.70;;
36855;SDS011;22788;51.434;6.786;2024-01-16T10:09:51;7.67;;;3.43;;
36855;SDS011;22788;51.434;6.786;2024-01-16T10:12:17;5.03;;;3.20;;
36855;SDS011;22788;51.434;6.786;2024-01-16T10:14:43;6.70;;;3.27;;
36855;SDS011;22788;51.434;6.786;2024-01-16T10:17:09;7.00;;;3.20;;
36855;SDS011;22788;51.434;6.786;2024-01-16T10:19:34;6.47;;;3.47;;
36855;SDS011;22788;51.434;6.786;2024-01-16T10:22:13;7.07;;;3.20;;
36855;SDS011;22788;51.434;6.786;2024-01-16T10:24:43;6.37;;;3.13;;
36855;SDS011;22788;51.434;6.786;2024-01-16T10:27:09;3.60;;;2.53;;
36855;SDS011;22788;51.434;6.786;2024-01-16T10:29:34;5.50;;;2.77;;
36855;SDS011;22788;51.434;6.786;2024-01-16T10:32:00;4.40;;;3.17;;
36855;SDS011;22788;51.434;6.786;2024-01-16T10:34:26;7.10;;;3.70;;
36855;SDS011;22788;51.434;6.786;2024-01-16T10:36:52;6.80;;;3.40;;
36855;SDS011;22788;51.434;6.786;2024-01-16T10:39:25;5.27;;;3.20;;
36855;SDS011;22788;51.434;6.786;2024-01-16T10:41:53;5.40;;;2.97;;
36855;SDS011;22788;51.434;6.786;2024-01-16T10:44:19;6.90;;;3.10;;
36855;SDS011;22788;51.434;6.786;2024-01-16T10:46:45;4.17;;;3.00;;
36855;SDS011;22788;51.434;6.786;2024-01-16T10:49:10;7.33;;;3.60;;
36855;SDS011;22788;51.434;6.786;2024-01-16T10:51:36;4.93;;;3.27;;
36855;SDS011;22788;51.434;6.786;2024-01-16T10:54:03;5.03;;;2.80;;
36855;SDS011;22788;51.434;6.786;2024-01-16T10:56:31;4.43;;;2.43;;
36855;SDS011;22788;51.434;6.786;2024-01-16T10:58:57;4.80;;;2.87;;
36855;SDS011;22788;51.434;6.786;2024-01-16T11:01:33;5.10;;;3.07;;
36855;SDS011;22788;51.434;6.786;2024-01-16T11:03:59;10.60;;;3.83;;
36855;SDS011;22788;51.434;6.786;2024-01-16T11:06:26;4.43;;;2.90;;
36855;SDS011;22788;51.434;6.786;2024-01-16T11:08:52;6.87;;;2.93;;
36855;SDS011;22788;51.434;6.786;2024-01-16T11:11:20;4.63;;;3.37;;
36855;SDS011;22788;51.434;6.786;2024-01-16T11:13:50;6.80;;;2.77;;
36855;SDS011;22788;51.434;6.786;2024-01-16T11:16:16;6.97;;;3.27;;
36855;SDS011;22788;51.434;6.786;2024-01-16T11:18:43;5.53;;;3.17;;
36855;SDS011;22788;51.434;6.786;2024-01-16T11:21:09;6.63;;;3.00;;
36855;SDS011;22788;51.434;6.786;2024-01-16T11:23:37;6.97;;;3.23;;
36855;SDS011;22788;51.434;6.786;2024-01-16T11:28:51;4.60;;;3.10;;
36855;SDS011;22788;51.434;6.786;2024-01-16T11:31:27;5.93;;;3.00;;
36855;SDS011;22788;51.434;6.786;2024-01-16T11:33:53;5.43;;;3.57;;
36855;SDS011;22788;51.434;6.786;2024-01-16T11:39:17;5.37;;;3.40;;
36855;SDS011;22788;51.434;6.786;2024-01-16T11:41:50;5.97;;;3.33;;
36855;SDS011;22788;51.434;6.786;2024-01-16T11:47:08;5.40;;;3.30;;
36855;SDS011;22788;51.434;6.786;2024-01-16T11:49:34;5.20;;;3.20;;
36855;SDS011;22788;51.434;6.786;2024-01-16T11:52:00;7.43;;;3.57;;
36855;SDS011;22788;51.434;6.786;2024-01-16T11:54:26;6.67;;;3.40;;
36855;SDS011;22788;51.434;6.786;2024-01-16T11:56:56;7.03;;;3.23;;
36855;SDS011;22788;51.434;6.786;2024-01-16T11:59:47;5.73;;;3.60;;
36855;SDS011;22788;51.434;6.786;2024-01-16T12:02:26;5.90;;;3.27;;
36855;SDS011;22788;51.434;6.786;2024-01-16T12:04:59;5.77;;;3.20;;
36855;SDS011;22788;51.434;6.786;2024-01-16T12:07:25;8.90;;;3.53;;
36855;SDS011;22788;51.434;6.786;2024-01-16T12:09:50;4.63;;;3.30;;
36855;SDS011;22788;51.434;6.786;2024-01-16T12:12:16;5.60;;;3.30;;
36855;SDS011;22788;51.434;6.786;2024-01-16T12:14:43;8.43;;;3.10;;
36855;SDS011;22788;51.434;6.786;2024-01-16T12:17:17;6.93;;;3.20;;
36855;SDS011;22788;51.434;6.786;2024-01-16T12:19:43;6.60;;;3.67;;
36855;SDS011;22788;51.434;6.786;2024-01-16T12:22:08;5.00;;;3.60;;
36855;SDS011;22788;51.434;6.786;2024-01-16T12:24:34;7.43;;;3.37;;
36855;SDS011;22788;51.434;6.786;2024-01-16T12:27:00;6.23;;;4.17;;
36855;SDS011;22788;51.434;6.786;2024-01-16T12:29:25;7.30;;;3.87;;
36855;SDS011;22788;51.434;6.786;2024-01-16T12:32:05;7.83;;;3.97;;
36855;SDS011;22788;51.434;6.786;2024-01-16T12:34:31;4.90;;;3.10;;
36855;SDS011;22788;51.434;6.786;2024-01-16T12:37:03;4.00;;;3.03;;
36855;SDS011;22788;51.434;6.786;2024-01-16T12:39:29;7.53;;;3.50;;
36855;SDS011;22788;51.434;6.786;2024-01-16T12:41:55;5.93;;;3.20;;
36855;SDS011;22788;51.434;6.786;2024-01-16T12:44:26;7.23;;;3.53;;
36855;SDS011;22788;51.434;6.786;2024-01-16T12:46:53;5.13;;;3.53;;
36855;SDS011;22788;51.434;6.786;2024-01-16T12:49:20;8.53;;;3.93;;
36855;SDS011;22788;51.434;6.786;2024-01-16T12:51:46;7.80;;;3.80;;
36855;SDS011;22788;51.434;6.786;2024-01-16T12:54:12;7.83;;;3.77;;
36855;SDS011;22788;51.434;6.786;2024-01-16T12:56:38;7.93;;;3.37;;
36855;SDS011;22788;51.434;6.786;2024-01-16T12:59:08;7.00;;;3.40;;
36855;SDS011;22788;51.434;6.786;2024-01-16T13:01:34;8.70;;;3.47;;
36855;SDS011;22788;51.434;6.786;2024-01-16T13:04:03;6.70;;;4.53;;
36855;SDS011;22788;51.434;6.786;2024-01-16T13:06:30;8.30;;;3.40;;
36855;SDS011;22788;51.434;6.786;2024-01-16T13:09:04;9.10;;;4.10;;
36855;SDS011;22788;51.434;6.786;2024-01-16T13:11:30;9.23;;;4.63;;
36855;SDS011;22788;51.434;6.786;2024-01-16T13:14:00;7.70;;;4.07;;
36855;SDS011;22788;51.434;6.786;2024-01-16T13:16:26;6.37;;;4.00;;
36855;SDS011;22788;51.434;6.786;2024-01-16T13:18:59;5.30;;;3.60;;
36855;SDS011;22788;51.434;6.786;2024-01-16T13:21:25;6.63;;;4.07;;
36855;SDS011;22788;51.434;6.786;2024-01-16T13:23:52;5.87;;;3.60;;
36855;SDS011;22788;51.434;6.786;2024-01-16T13:26:18;5.53;;;3.23;;
36855;SDS011;22788;51.434;6.786;2024-01-16T13:28:45;7.10;;;3.70;;
36855;SDS011;22788;51.434;6.786;2024-01-16T13:31:10;7.33;;;3.90;;
36855;SDS011;22788;51.434;6.786;2024-01-16T13:33:36;8.17;;;4.27;;
36855;SDS011;22788;51.434;6.786;2024-01-16T13:36:01;7.50;;;3.83;;
36855;SDS011;22788;51.434;6.786;2024-01-16T13:38:27;7.77;;;4.60;;
36855;SDS011;22788;51.434;6.786;2024-01-16T13:40:54;5.73;;;3.47;;
36855;SDS011;22788;51.434;6.786;2024-01-16T13:43:20;7.53;;;3.80;;
36855;SDS011;22788;51.434;6.786;2024-01-16T13:45:45;6.33;;;3.83;;
36855;SDS011;22788;51.434;6.786;2024-01-16T13:48:11;6.10;;;3.47;;
36855;SDS011;22788;51.434;6.786;2024-01-16T13:50:36;8.23;;;4.30;;
36855;SDS011;22788;51.434;6.786;2024-01-16T13:53:02;12.47;;;4.80;;
36855;SDS011;22788;51.434;6.786;2024-01-16T13:55:28;5.30;;;3.67;;
36855;SDS011;22788;51.434;6.786;2024-01-16T13:57:55;5.43;;;3.77;;
36855;SDS011;22788;51.434;6.786;2024-01-16T14:00:21;7.73;;;3.53;;
36855;SDS011;22788;51.434;6.786;2024-01-16T14:02:46;9.53;;;4.87;;
36855;SDS011;22788;51.434;6.786;2024-01-16T14:05:13;7.93;;;4.30;;
36855;SDS011;22788;51.434;6.786;2024-01-16T14:07:40;6.83;;;4.20;;
36855;SDS011;22788;51.434;6.786;2024-01-16T14:10:07;9.57;;;3.93;;
36855;SDS011;22788;51.434;6.786;2024-01-16T14:12:33;5.87;;;3.90;;
36855;SDS011;22788;51.434;6.786;2024-01-16T14:15:00;9.00;;;4.77;;
36855;SDS011;22788;51.434;6.786;2024-01-16T14:17:26;10.37;;;4.10;;
36855;SDS011;22788;51.434;6.786;2024-01-16T14:19:51;8.87;;;4.47;;
36855;SDS011;22788;51.434;6.786;2024-01-16T14:22:17;9.93;;;4.33;;
36855;SDS011;22788;51.434;6.786;2024-01-16T14:24:42;9.23;;;4.57;;
36855;SDS011;22788;51.434;6.786;2024-01-16T14:27:08;6.13;;;3.80;;
36855;SDS011;22788;51.434;6.786;2024-01-16T14:29:34;6.73;;;4.07;;
36855;SDS011;22788;51.434;6.786;2024-01-16T14:32:03;9.53;;;4.00;;
36855;SDS011;22788;51.434;6.786;2024-01-16T14:34:28;6.93;;;3.83;;
36855;SDS011;22788;51.434;6.786;2024-01-16T14:36:54;8.40;;;3.77;;
36855;SDS011;22788;51.434;6.786;2024-01-16T14:39:20;8.27;;;3.97;;
36855;SDS011;22788;51.434;6.786;2024-01-16T14:41:45;7.70;;;3.90;;
36855;SDS011;22788;51.434;6.786;2024-01-16T14:44:11;7.10;;;4.07;;
36855;SDS011;22788;51.434;6.786;2024-01-16T14:46:37;5.60;;;3.80;;
36855;SDS011;22788;51.434;6.786;2024-01-16T14:49:06;7.83;;;3.83;;
36855;SDS011;22788;51.434;6.786;2024-01-16T14:51:31;6.60;;;3.63;;